Weather at London Gatwick Airport

Public forecast

Using degrees Celsius for public forecast. Weather courtesy of forecast.io.

Current aviation weather report (METAR) for London Gatwick Airport

Retrieved 2021/08/04 15:20 UTC (2 minutes ago):

EGKK 041520Z 16004KT 130V200 9999 FEW048 21/11 Q1012

Aviation forecast (TAF) for London Gatwick Airport

Retrieved 2021/08/04 12:00 UTC (3 hours ago):

TAF EGKK 041054Z 0412/0518 10004KT 9999 FEW045 PROB30 TEMPO 0412/0417 7000 SHRA PROB30 TEMPO 0503/0507 8000 BKN012 BECMG 0506/0509 19010KT PROB40 TEMPO 0512/0518 6000 RA SHRA BKN012